Time;durP1;ratioP1;P1;durP2;ratioP2;P2;SDS_P1;SDS_P2;PMS_P1;PMS_P2;Temp;Humidity;BMP_temperature;BMP_pressure;BME280_temperature;BME280_humidity;BME280_pressure;Samples;Min_cycle;Max_cycle;Signal;HPM_P1;HPM_P2
2023/12/01 00:01:31;;;;;;;8.65;5.13;;;;;;;9.71;57.51;98617.47;4920762;28;20038;-73
2023/12/01 00:03:56;;;;;;;9.65;4.97;;;;;;;9.73;57.39;98620.78;4936584;29;20401;-73
2023/12/01 00:06:22;;;;;;;8.85;5.57;;;;;;;9.73;57.57;98626.00;4920535;29;20040;-73
2023/12/01 00:08:47;;;;;;;9.38;5.55;;;;;;;9.78;57.34;98630.88;4936057;29;20519;-72
2023/12/01 00:11:13;;;;;;;7.43;4.90;;;;;;;9.73;57.57;98625.19;4935893;29;20098;-72
2023/12/01 00:13:38;;;;;;;9.95;5.25;;;;;;;9.77;57.35;98631.81;4936136;29;20479;-73
2023/12/01 00:16:04;;;;;;;7.53;4.95;;;;;;;9.77;57.68;98637.88;4920248;29;20031;-73
2023/12/01 00:18:29;;;;;;;7.85;5.15;;;;;;;9.76;57.63;98631.00;4936299;29;20035;-73
2023/12/01 00:20:55;;;;;;;7.82;5.07;;;;;;;9.78;57.45;98623.06;4936135;29;20131;-73
2023/12/01 00:23:20;;;;;;;7.75;4.82;;;;;;;9.77;57.61;98631.81;4920266;29;20491;-73
2023/12/01 00:25:46;;;;;;;10.05;4.72;;;;;;;9.75;57.24;98620.69;4935914;29;20074;-73
2023/12/01 00:28:12;;;;;;;7.50;4.80;;;;;;;9.70;57.23;98614.97;4936875;29;20094;-73
2023/12/01 00:30:37;;;;;;;8.68;5.10;;;;;;;9.73;57.54;98618.19;4955091;29;20043;-73
2023/12/01 00:33:03;;;;;;;9.35;5.03;;;;;;;9.65;57.25;98607.50;4971110;28;20023;-73
2023/12/01 00:35:29;;;;;;;8.68;5.40;;;;;;;9.69;57.43;98618.53;4971337;28;20466;-73
2023/12/01 00:37:55;;;;;;;8.95;5.65;;;;;;;9.71;57.48;98627.06;4955073;28;20627;-73
2023/12/01 00:40:20;;;;;;;9.90;6.07;;;;;;;9.70;57.23;98626.22;4954597;28;20039;-72
2023/12/01 00:42:46;;;;;;;11.02;6.70;;;;;;;9.71;57.47;98627.06;4954377;28;20034;-73
2023/12/01 00:45:11;;;;;;;11.35;6.50;;;;;;;9.68;57.42;98619.50;4939019;29;20047;-73
2023/12/01 00:47:37;;;;;;;11.82;6.63;;;;;;;9.68;57.32;98622.91;4966907;28;20082;-73
2023/12/01 00:50:03;;;;;;;10.38;6.53;;;;;;;9.67;57.15;98631.66;4935480;29;20035;-73
2023/12/01 00:52:28;;;;;;;11.43;6.82;;;;;;;9.67;57.31;98620.41;4951268;29;20052;-73
2023/12/01 00:54:54;;;;;;;11.65;6.47;;;;;;;9.62;57.18;98610.34;4935695;29;20069;-72
2023/12/01 00:57:19;;;;;;;11.05;6.63;;;;;;;9.65;57.45;98609.28;4935051;29;20082;-73
2023/12/01 00:59:45;;;;;;;9.15;6.13;;;;;;;9.64;57.22;98621.47;4920368;29;20040;-72
2023/12/01 01:02:10;;;;;;;11.15;6.50;;;;;;;9.62;57.21;98612.94;4919878;29;20052;-73
2023/12/01 01:04:36;;;;;;;9.48;6.03;;;;;;;9.62;57.37;98618.16;4936055;28;20050;-72
2023/12/01 01:07:02;;;;;;;11.63;6.13;;;;;;;9.60;57.25;98626.09;4919440;29;20107;-73
2023/12/01 01:09:28;;;;;;;11.68;6.85;;;;;;;9.62;57.22;98618.16;4934944;28;20036;-72
2023/12/01 01:11:54;;;;;;;9.70;6.28;;;;;;;9.59;57.17;98621.81;4935094;29;20035;-73
2023/12/01 01:14:19;;;;;;;11.00;6.32;;;;;;;9.58;57.25;98614.97;4935038;29;20519;-73
2023/12/01 01:16:45;;;;;;;11.18;6.10;;;;;;;9.57;57.26;98608.06;4935264;29;20388;-73
2023/12/01 01:19:11;;;;;;;11.13;6.03;;;;;;;9.55;57.53;98611.72;4935411;29;20186;-73
2023/12/01 01:21:36;;;;;;;9.02;5.50;;;;;;;9.49;57.18;98605.22;4951169;29;20078;-73
2023/12/01 01:24:02;;;;;;;11.13;6.18;;;;;;;9.55;57.31;98619.53;4951486;29;20082;-74
2023/12/01 01:26:27;;;;;;;10.45;6.03;;;;;;;9.54;57.28;98621.31;4954226;28;20035;-72
2023/12/01 01:28:53;;;;;;;9.13;5.45;;;;;;;9.53;57.22;98614.44;4938427;29;20419;-73
2023/12/01 01:31:18;;;;;;;9.65;5.53;;;;;;;9.52;57.19;98617.16;4970558;28;20051;-73
2023/12/01 01:33:44;;;;;;;9.88;5.60;;;;;;;9.52;57.25;98606.72;4938373;29;20105;-73
2023/12/01 01:36:10;;;;;;;8.32;5.50;;;;;;;9.52;57.06;98615.41;4953902;29;20577;-73
2023/12/01 01:38:37;;;;;;;9.00;5.35;;;;;;;9.51;57.32;98610.31;4970126;28;20027;-74
2023/12/01 01:41:03;;;;;;;8.55;5.50;;;;;;;9.49;56.99;98602.59;4953738;29;20043;-71
2023/12/01 01:43:29;;;;;;;9.30;5.47;;;;;;;9.49;57.27;98600.00;4954142;29;20520;-73
2023/12/01 01:46:09;;;;;;;10.13;5.10;;;;;;;9.45;57.29;98582.91;4955206;28;20035;-72
2023/12/01 01:48:34;;;;;;;7.90;4.85;;;;;;;9.45;57.20;98576.88;4937824;29;20031;-72
2023/12/01 01:51:00;;;;;;;7.75;5.13;;;;;;;9.47;57.06;98581.06;4953813;29;20035;-73
2023/12/01 01:53:27;;;;;;;9.27;4.75;;;;;;;9.46;57.14;98592.41;4936933;29;20075;-73
2023/12/01 01:55:52;;;;;;;7.80;5.05;;;;;;;9.46;57.30;98595.00;4935797;29;20105;-72
2023/12/01 01:58:18;;;;;;;8.40;5.03;;;;;;;9.46;57.32;98595.00;4969548;28;20102;-72
2023/12/01 02:00:49;;;;;;;8.70;5.25;;;;;;;9.47;57.28;98595.81;4953687;29;20038;-73
2023/12/01 02:03:16;;;;;;;8.15;4.90;;;;;;;9.44;57.20;98588.25;4953706;29;20051;-73
2023/12/01 02:05:41;;;;;;;7.80;4.90;;;;;;;9.47;57.15;98588.00;4937567;29;20403;-73
2023/12/01 02:08:22;;;;;;;8.50;4.68;;;;;;;9.43;57.04;98584.81;4954420;28;20042;-75
2023/12/01 02:10:48;;;;;;;7.30;4.35;;;;;;;9.45;57.03;98584.69;4953496;28;20066;-73
2023/12/01 02:13:14;;;;;;;7.35;4.63;;;;;;;9.41;57.16;98576.28;4953232;28;20495;-73
2023/12/01 02:15:41;;;;;;;7.53;5.00;;;;;;;9.37;56.88;98570.44;4937474;29;20034;-73
2023/12/01 02:18:24;;;;;;;7.32;4.60;;;;;;;9.39;57.30;98565.13;4937066;29;20160;-74
2023/12/01 02:20:50;;;;;;;9.13;5.22;;;;;;;9.38;56.92;98566.09;4936872;29;20054;-74
2023/12/01 02:23:15;;;;;;;9.00;5.38;;;;;;;9.40;57.42;98572.84;4952879;29;20357;-74
2023/12/01 02:25:41;;;;;;;8.43;5.43;;;;;;;9.36;57.03;98568.81;4931376;29;20056;-73
2023/12/01 02:28:06;;;;;;;9.05;5.47;;;;;;;9.39;57.22;98578.16;4968966;28;20042;-74
2023/12/01 02:30:32;;;;;;;9.82;5.40;;;;;;;9.34;57.14;98569.84;4952679;29;20129;-73
2023/12/01 02:32:57;;;;;;;11.15;5.47;;;;;;;9.39;57.09;98585.97;4952695;29;20042;-73
2023/12/01 02:35:29;;;;;;;9.43;5.38;;;;;;;9.38;57.00;98587.75;4952943;29;20069;-73
2023/12/01 02:37:55;;;;;;;8.90;5.55;;;;;;;9.38;57.00;98579.13;4937641;29;20023;-73
2023/12/01 02:40:22;;;;;;;10.32;5.65;;;;;;;9.37;57.22;98564.41;4936730;29;20065;-74
2023/12/01 02:42:48;;;;;;;10.50;5.53;;;;;;;9.36;57.06;98565.34;4952840;28;20114;-73
2023/12/01 02:45:14;;;;;;;8.25;5.38;;;;;;;9.36;57.13;98561.00;4936780;29;20050;-74
2023/12/01 02:47:40;;;;;;;9.70;5.15;;;;;;;9.31;56.86;98557.06;4953773;28;20499;-73
2023/12/01 02:50:09;;;;;;;9.65;5.28;;;;;;;9.35;56.91;98558.50;4968604;28;20031;-73
2023/12/01 02:52:36;;;;;;;9.32;4.97;;;;;;;9.32;57.12;98553.53;4952724;29;20031;-73
2023/12/01 02:55:02;;;;;;;10.23;5.38;;;;;;;9.33;56.88;98560.38;4952725;29;20392;-72
2023/12/01 02:57:28;;;;;;;9.90;5.47;;;;;;;9.28;57.01;98555.50;4943999;29;20134;-72
2023/12/01 02:59:53;;;;;;;8.02;5.25;;;;;;;9.29;57.01;98548.53;4912079;29;20032;-72
2023/12/01 03:02:19;;;;;;;10.27;5.38;;;;;;;9.33;57.08;98552.56;4945071;29;20411;-72
2023/12/01 03:04:44;;;;;;;7.30;4.22;;;;;;;9.28;56.92;98539.88;4939693;29;20051;-73
2023/12/01 03:07:09;;;;;;;11.48;5.32;;;;;;;9.33;56.89;98552.56;4934051;29;20472;-72
2023/12/01 03:09:35;;;;;;;8.18;5.20;;;;;;;9.31;56.91;98557.88;4934082;29;20035;-73
2023/12/01 03:12:01;;;;;;;9.60;4.30;;;;;;;9.28;56.90;98546.88;4919748;29;20532;-74
2023/12/01 03:14:26;;;;;;;8.55;4.60;;;;;;;9.32;56.81;98543.09;4933882;29;20036;-73
2023/12/01 03:16:56;;;;;;;7.57;4.38;;;;;;;9.30;56.84;98545.81;4933555;29;20040;-72
2023/12/01 03:19:22;;;;;;;8.00;4.45;;;;;;;9.26;56.49;98546.97;4918073;29;20457;-74
2023/12/01 03:21:48;;;;;;;8.00;4.78;;;;;;;9.29;56.90;98551.97;4950320;29;20032;-73
2023/12/01 03:24:14;;;;;;;7.88;4.45;;;;;;;9.24;57.09;98547.09;4936338;29;20024;-75
2023/12/01 03:26:39;;;;;;;7.28;4.13;;;;;;;9.30;56.84;98551.03;4920808;29;20051;-73
2023/12/01 03:29:05;;;;;;;6.70;4.05;;;;;;;9.26;56.87;98541.75;4936008;29;20032;-73
2023/12/01 03:31:31;;;;;;;7.25;4.32;;;;;;;9.29;57.04;98538.13;4915186;29;20069;-70
2023/12/01 03:33:57;;;;;;;8.05;4.55;;;;;;;9.29;56.98;98543.31;4954733;29;20506;-77
2023/12/01 03:36:22;;;;;;;6.97;4.43;;;;;;;9.27;57.01;98537.41;4956621;28;20106;-74
2023/12/01 03:38:48;;;;;;;7.80;4.25;;;;;;;9.28;56.87;98541.66;4955082;29;20062;-72
2023/12/01 03:41:13;;;;;;;6.78;4.20;;;;;;;9.23;56.77;98532.44;4938824;29;20070;-73
2023/12/01 03:43:39;;;;;;;6.78;4.45;;;;;;;9.24;56.75;98534.06;4955118;29;20114;-72
2023/12/01 03:46:05;;;;;;;7.97;4.80;;;;;;;9.27;57.05;98537.41;4953231;28;20058;-72
2023/12/01 03:48:33;;;;;;;8.05;4.03;;;;;;;9.33;64.09;98531.72;4971036;28;20039;-74
2023/12/01 03:50:58;;;;;;;7.97;4.70;;;;;;;10.24;72.11;98523.03;4970908;28;20574;-74
2023/12/01 03:53:24;;;;;;;13.38;4.35;;;;;;;10.41;71.41;98526.16;4939645;29;20106;-78
2023/12/01 03:55:49;;;;;;;7.13;3.97;;;;;;;10.46;70.06;98531.81;4954577;29;20058;-77
2023/12/01 03:58:16;;;;;;;7.93;4.38;;;;;;;10.43;67.61;98526.84;4971164;28;20538;-73
2023/12/01 04:00:41;;;;;;;7.43;4.18;;;;;;;10.41;67.37;98524.34;4954112;29;20051;-74
2023/12/01 04:03:07;;;;;;;6.97;3.42;;;;;;;10.39;67.96;98528.88;4954633;29;20046;-77
2023/12/01 04:05:32;;;;;;;7.07;3.67;;;;;;;10.40;68.26;98534.91;4938836;29;20066;-76
2023/12/01 04:07:58;;;;;;;6.88;3.60;;;;;;;10.36;68.76;98529.13;4954261;29;20035;-77
2023/12/01 04:10:27;;;;;;;7.20;3.67;;;;;;;10.34;69.06;98522.34;4938224;29;20498;-76
2023/12/01 04:12:52;;;;;;;6.32;3.60;;;;;;;10.41;69.29;98537.41;4954253;29;20111;-76
2023/12/01 04:15:19;;;;;;;8.70;3.80;;;;;;;10.42;69.74;98548.66;4953945;28;20035;-75
2023/12/01 04:17:45;;;;;;;8.63;3.92;;;;;;;10.41;69.29;98537.41;4969789;28;20046;-76
2023/12/01 04:20:27;;;;;;;5.15;3.42;;;;;;;10.43;69.58;98534.69;4929713;29;20039;-75
2023/12/01 04:22:54;;;;;;;7.07;3.33;;;;;;;10.39;69.91;98528.03;4922223;29;20481;-77
2023/12/01 04:25:19;;;;;;;5.40;3.30;;;;;;;10.44;69.66;98531.94;4934677;29;20400;-76
2023/12/01 04:27:46;;;;;;;5.18;3.33;;;;;;;10.44;70.00;98537.16;4934902;29;20174;-77
2023/12/01 04:30:14;;;;;;;6.65;3.58;;;;;;;10.45;70.07;98530.16;4939788;29;20467;-78
2023/12/01 04:32:52;;;;;;;4.88;3.30;;;;;;;10.47;70.21;98536.09;4937795;29;20511;-78
2023/12/01 04:35:18;;;;;;;;;;;;;;;10.46;69.98;98521.38;4920191;29;20035;-75
2023/12/01 04:37:44;;;;;;;6.03;4.00;;;;;;;10.43;70.23;98532.88;4936322;29;20017;-77
2023/12/01 04:40:16;;;;;;;5.53;3.45;;;;;;;10.44;70.08;98538.97;4950823;29;20090;-76
2023/12/01 04:42:48;;;;;;;5.70;3.67;;;;;;;10.40;70.05;98530.53;4935369;29;20051;-77
2023/12/01 04:45:15;;;;;;;5.43;3.33;;;;;;;10.42;70.05;98544.28;4935068;29;20035;-75
2023/12/01 04:47:41;;;;;;;5.53;3.58;;;;;;;10.40;70.20;98530.53;4923323;29;20035;-74
2023/12/01 04:50:18;;;;;;;7.18;3.35;;;;;;;10.49;71.39;98545.44;4935428;29;20035;-76
2023/12/01 04:52:47;;;;;;;6.93;3.80;;;;;;;10.67;72.79;98548.41;4900917;29;20032;-75
2023/12/01 04:55:14;;;;;;;9.93;3.70;;;;;;;10.66;72.02;98545.91;4916814;29;20397;-79
2023/12/01 04:57:40;;;;;;;6.93;3.70;;;;;;;10.68;70.71;98557.88;4905212;29;20393;-79
2023/12/01 05:00:19;;;;;;;8.95;3.80;;;;;;;10.65;70.46;98547.66;4902081;29;20144;-80
2023/12/01 05:02:49;;;;;;;6.97;4.10;;;;;;;10.54;68.24;98547.69;4902681;29;20036;-82
2023/12/01 05:05:15;;;;;;;13.70;4.20;;;;;;;10.39;67.33;98551.50;4917044;29;20043;-83
2023/12/01 05:07:41;;;;;;;8.70;3.90;;;;;;;10.26;67.30;98543.78;4924149;29;20517;-82
2023/12/01 05:10:14;;;;;;;8.35;4.40;;;;;;;10.17;66.92;98566.22;4955287;29;20035;-83
2023/12/01 05:12:46;;;;;;;9.25;4.63;;;;;;;10.07;66.79;98555.66;4940042;29;20478;-82
2023/12/01 05:15:18;;;;;;;9.27;4.32;;;;;;;9.96;66.74;98537.38;4938988;29;20031;-78
2023/12/01 05:17:51;;;;;;;7.10;4.82;;;;;;;9.90;66.51;98550.91;4954274;29;20118;-75
2023/12/01 05:20:17;;;;;;;8.23;4.80;;;;;;;9.82;66.06;98548.03;4970545;28;20396;-77
2023/12/01 05:22:46;;;;;;;9.05;5.10;;;;;;;9.74;66.14;98548.63;4938179;29;20039;-77
2023/12/01 05:25:13;;;;;;;8.60;5.15;;;;;;;9.65;65.96;98539.75;4969949;28;20027;-77
2023/12/01 05:27:52;;;;;;;9.02;5.00;;;;;;;9.62;65.87;98544.38;4953465;28;20054;-79
2023/12/01 05:30:20;;;;;;;8.82;5.32;;;;;;;9.55;65.52;98530.94;4954223;29;20150;-78
2023/12/01 05:32:48;;;;;;;8.32;5.45;;;;;;;9.50;65.49;98535.69;4938076;29;20027;-76
2023/12/01 05:35:15;;;;;;;11.43;4.97;;;;;;;9.51;67.89;98530.34;4954334;29;20042;-77
2023/12/01 05:37:41;;;;;;;11.02;5.50;;;;;;;9.56;67.21;98536.03;4954022;28;20038;-74
2023/12/01 05:40:10;;;;;;;13.57;5.75;;;;;;;9.55;66.24;98539.59;4937998;29;20130;-76
2023/12/01 05:42:36;;;;;;;;;;;;;;;9.55;66.29;98539.59;4970281;28;20035;-73
2023/12/01 05:45:01;;;;;;;10.07;5.40;;;;;;;9.47;66.08;98525.47;4954779;28;19910;-76
2023/12/01 05:47:27;;;;;;;12.45;5.53;;;;;;;9.50;65.91;98533.88;4914651;29;20047;-72
2023/12/01 05:49:52;;;;;;;9.15;5.45;;;;;;;9.50;66.06;98539.09;4932976;29;20027;-77
2023/12/01 05:52:18;;;;;;;8.55;5.25;;;;;;;9.46;65.76;98532.47;4918692;29;20146;-79
2023/12/01 05:54:44;;;;;;;12.15;5.93;;;;;;;9.49;65.85;98534.84;4902173;29;20054;-77
2023/12/01 05:57:10;;;;;;;7.28;4.70;;;;;;;9.49;65.56;98554.84;4918462;29;20063;-78
2023/12/01 05:59:38;;;;;;;9.95;5.13;;;;;;;9.48;65.79;98551.41;4935103;28;20035;-78
2023/12/01 06:02:10;;;;;;;7.43;5.25;;;;;;;9.50;65.52;98543.50;4934794;29;20126;-78
2023/12/01 06:04:37;;;;;;;7.13;4.90;;;;;;;9.52;65.47;98554.63;4920376;29;20047;-77
2023/12/01 06:07:07;;;;;;;11.98;4.78;;;;;;;9.52;65.39;98549.41;4936030;29;20036;-76
2023/12/01 06:09:33;;;;;;;8.27;5.45;;;;;;;9.52;65.43;98544.19;4919695;29;20024;-76
2023/12/01 06:11:59;;;;;;;8.65;5.30;;;;;;;9.53;65.33;98554.50;4936128;29;20044;-76
2023/12/01 06:14:24;;;;;;;8.38;4.78;;;;;;;9.55;65.38;98546.56;4934891;29;20027;-75
2023/12/01 06:16:50;;;;;;;9.05;5.13;;;;;;;9.55;65.19;98541.38;4935689;29;20444;-76
2023/12/01 06:19:16;;;;;;;9.10;4.97;;;;;;;9.56;64.90;98543.84;4918883;29;20586;-77
2023/12/01 06:21:41;;;;;;;10.02;4.70;;;;;;;9.57;65.10;98545.53;4919171;29;20039;-77
2023/12/01 06:24:07;;;;;;;7.20;5.00;;;;;;;9.59;64.92;98535.00;4918920;29;20503;-78
2023/12/01 06:26:32;;;;;;;11.25;4.95;;;;;;;9.65;64.72;98542.34;4918256;29;20102;-75
2023/12/01 06:28:58;;;;;;;10.25;5.75;;;;;;;9.68;64.81;98536.09;4918597;29;20042;-76
2023/12/01 06:31:23;;;;;;;10.35;5.90;;;;;;;9.71;64.96;98538.44;4918835;29;20038;-77
2023/12/01 06:33:49;;;;;;;9.25;5.45;;;;;;;9.74;64.64;98544.25;4918776;29;20034;-77
2023/12/01 06:36:15;;;;;;;8.88;5.32;;;;;;;9.79;64.40;98538.69;4918460;29;20475;-75
2023/12/01 06:38:40;;;;;;;8.75;5.80;;;;;;;9.85;64.41;98533.03;4902660;29;20047;-77
2023/12/01 06:41:06;;;;;;;9.98;6.13;;;;;;;9.93;64.21;98525.44;4917889;29;20048;-76
2023/12/01 06:43:32;;;;;;;10.20;6.05;;;;;;;10.02;64.05;98530.88;4902438;29;20028;-77
2023/12/01 06:45:57;;;;;;;9.63;6.05;;;;;;;10.07;63.72;98536.56;4918204;29;20039;-76
2023/12/01 06:48:23;;;;;;;12.23;6.00;;;;;;;10.23;63.85;98539.66;4918207;29;20408;-75
2023/12/01 06:50:48;;;;;;;10.48;5.90;;;;;;;10.32;63.46;98540.69;4918311;29;20035;-76
2023/12/01 06:53:14;;;;;;;11.48;6.10;;;;;;;10.50;63.16;98541.91;4918151;29;20020;-76
2023/12/01 06:55:40;;;;;;;10.40;5.43;;;;;;;10.72;62.69;98540.22;4917860;29;20059;-76
2023/12/01 06:58:09;;;;;;;9.73;6.30;;;;;;;11.04;61.80;98545.44;4918179;29;20031;-77
2023/12/01 07:00:36;;;;;;;9.38;5.72;;;;;;;11.41;60.97;98531.13;4919091;29;20127;-75
2023/12/01 07:03:07;;;;;;;9.68;5.93;;;;;;;11.65;60.52;98548.34;4918816;29;20071;-76
2023/12/01 07:05:35;;;;;;;8.35;5.82;;;;;;;11.77;60.55;98540.28;4919089;29;20032;-79
2023/12/01 07:08:01;;;;;;;12.63;5.63;;;;;;;11.95;60.36;98544.94;4933874;29;20070;-77
2023/12/01 07:10:26;;;;;;;8.93;6.00;;;;;;;12.02;60.28;98537.41;4918647;29;20315;-76
2023/12/01 07:12:52;;;;;;;9.95;6.50;;;;;;;12.08;60.46;98534.25;4918286;29;20035;-77
2023/12/01 07:15:21;;;;;;;8.50;5.45;;;;;;;12.39;60.14;98535.06;4903107;29;20030;-76
2023/12/01 07:17:53;;;;;;;8.90;5.65;;;;;;;12.49;60.06;98528.06;4918775;29;20036;-76
2023/12/01 07:20:19;;;;;;;10.13;5.90;;;;;;;12.94;59.76;98531.16;4918678;29;20027;-76
2023/12/01 07:22:45;;;;;;;9.60;5.90;;;;;;;13.03;59.59;98538.22;4918230;29;20043;-77
2023/12/01 07:25:21;;;;;;;8.45;5.90;;;;;;;13.14;59.48;98537.22;4918170;29;20507;-78
2023/12/01 07:27:51;;;;;;;9.05;5.40;;;;;;;13.44;59.01;98532.81;4919615;29;20129;-77
2023/12/01 07:30:16;;;;;;;8.70;5.60;;;;;;;13.63;58.39;98534.56;4918594;29;20380;-78
2023/12/01 07:32:46;;;;;;;10.88;6.13;;;;;;;13.66;58.57;98537.75;4917776;29;20039;-79
2023/12/01 07:35:12;;;;;;;10.00;5.72;;;;;;;13.68;58.22;98542.88;4918032;29;20078;-78
2023/12/01 07:37:39;;;;;;;10.48;5.53;;;;;;;13.79;58.38;98550.56;4918532;29;20146;-79
2023/12/01 07:40:07;;;;;;;8.57;5.20;;;;;;;13.90;57.94;98541.72;4917957;29;20036;-78
2023/12/01 07:42:33;;;;;;;10.07;5.93;;;;;;;14.10;57.79;98561.66;4918590;29;20034;-78
2023/12/01 07:45:00;;;;;;;10.27;6.30;;;;;;;14.32;57.07;98549.13;4933786;29;20032;-79
2023/12/01 07:47:25;;;;;;;9.52;5.85;;;;;;;14.61;56.77;98542.91;4918373;29;20048;-79
2023/12/01 07:49:51;;;;;;;7.07;5.28;;;;;;;14.74;56.27;98550.47;4917936;29;20032;-78
2023/12/01 07:52:17;;;;;;;7.85;5.47;;;;;;;14.81;56.56;98541.81;4920467;29;20071;-78
2023/12/01 07:54:42;;;;;;;8.45;5.68;;;;;;;15.06;56.13;98549.94;4921178;29;20031;-77
2023/12/01 07:57:09;;;;;;;8.65;5.75;;;;;;;15.29;55.88;98541.59;4920918;29;20512;-77
2023/12/01 07:59:36;;;;;;;12.38;6.13;;;;;;;15.65;55.46;98542.34;4922106;29;20556;-77
2023/12/01 08:02:02;;;;;;;10.15;5.90;;;;;;;16.04;55.29;98541.16;4905911;29;20039;-79
2023/12/01 08:04:27;;;;;;;8.35;5.72;;;;;;;16.37;55.00;98543.94;4905681;29;20043;-78
2023/12/01 08:06:55;;;;;;;7.93;5.72;;;;;;;16.76;54.03;98540.72;4921607;29;20118;-78
2023/12/01 08:09:22;;;;;;;10.80;5.82;;;;;;;17.11;54.16;98552.88;4921808;29;20435;-79
2023/12/01 08:11:47;;;;;;;9.60;5.75;;;;;;;17.29;52.99;98546.63;4921053;29;20205;-78
2023/12/01 08:14:13;;;;;;;9.25;5.63;;;;;;;17.65;52.97;98538.34;4920809;29;20118;-78
2023/12/01 08:16:39;;;;;;;7.85;5.80;;;;;;;18.14;51.94;98540.91;4921114;29;20035;-77
2023/12/01 08:19:06;;;;;;;8.43;5.22;;;;;;;19.02;50.52;98538.16;4920753;29;20035;-77
2023/12/01 08:21:31;;;;;;;7.60;5.50;;;;;;;19.76;49.18;98543.69;4920876;29;20051;-77
2023/12/01 08:23:58;;;;;;;8.82;5.47;;;;;;;20.36;47.56;98546.34;4920606;29;20470;-77
2023/12/01 08:26:23;;;;;;;7.30;5.13;;;;;;;20.87;46.23;98538.38;4921447;29;20031;-75
2023/12/01 08:28:49;;;;;;;7.28;4.57;;;;;;;21.33;44.92;98540.66;4920461;29;20377;-78
2023/12/01 08:31:16;;;;;;;7.32;5.30;;;;;;;21.43;44.57;98537.69;4920543;29;20036;-78
2023/12/01 08:33:42;;;;;;;8.88;5.00;;;;;;;21.64;43.47;98536.84;4920977;29;20448;-77
2023/12/01 08:36:08;;;;;;;7.75;5.25;;;;;;;21.68;42.86;98548.72;4920446;29;20039;-78
2023/12/01 08:38:33;;;;;;;8.02;5.10;;;;;;;21.59;42.57;98559.69;4905448;29;20130;-77
2023/12/01 08:40:59;;;;;;;8.18;5.25;;;;;;;21.48;42.38;98551.22;4936773;29;20122;-77
2023/12/01 08:43:24;;;;;;;8.52;4.97;;;;;;;21.75;41.89;98545.31;4921071;29;20028;-78
2023/12/01 08:45:50;;;;;;;7.75;4.93;;;;;;;22.37;40.70;98538.31;4920501;29;20039;-77
2023/12/01 08:48:15;;;;;;;7.05;4.60;;;;;;;22.90;39.77;98535.84;4920067;29;20031;-77
2023/12/01 08:50:41;;;;;;;8.98;5.50;;;;;;;22.94;39.38;98536.25;4904395;29;20039;-78
2023/12/01 08:53:07;;;;;;;9.68;5.60;;;;;;;22.64;39.63;98541.06;4920553;29;20087;-77
2023/12/01 08:55:32;;;;;;;6.55;5.18;;;;;;;22.25;40.26;98555.81;4904382;29;20503;-80
2023/12/01 08:57:58;;;;;;;8.48;4.93;;;;;;;22.67;39.38;98548.66;4920697;29;20111;-76
2023/12/01 09:00:24;;;;;;;8.60;5.32;;;;;;;23.17;38.76;98554.53;4920321;29;20513;-77
2023/12/01 09:02:50;;;;;;;9.73;5.53;;;;;;;23.58;37.60;98540.22;4919666;29;20452;-77
2023/12/01 09:05:17;;;;;;;8.55;5.68;;;;;;;24.05;36.83;98542.00;4920582;29;20186;-76
2023/12/01 09:07:44;;;;;;;13.80;6.07;;;;;;;24.33;36.20;98547.06;4920449;29;20024;-78
2023/12/01 09:10:10;;;;;;;9.53;5.90;;;;;;;24.61;35.61;98519.28;4920514;29;20027;-78
2023/12/01 09:12:36;;;;;;;9.05;5.72;;;;;;;24.88;34.86;98511.94;4920202;29;20331;-77
2023/12/01 09:15:02;;;;;;;9.85;6.28;;;;;;;24.84;34.79;98503.53;4920258;29;20498;-77
2023/12/01 09:17:27;;;;;;;9.25;5.50;;;;;;;24.68;34.98;98499.50;4920041;29;20044;-76
2023/12/01 09:19:53;;;;;;;11.43;6.15;;;;;;;24.59;35.10;98500.81;4919906;29;20030;-79
2023/12/01 09:22:18;;;;;;;11.25;6.15;;;;;;;24.49;35.20;98508.41;4919597;29;20119;-76
2023/12/01 09:24:45;;;;;;;11.20;5.75;;;;;;;25.19;34.37;98491.56;4919731;29;20067;-76
2023/12/01 09:27:10;;;;;;;8.35;5.85;;;;;;;26.18;32.63;98500.50;4919672;29;20061;-77
2023/12/01 09:29:36;;;;;;;9.00;6.18;;;;;;;27.32;30.77;98500.81;4919649;29;20059;-80
2023/12/01 09:32:01;;;;;;;11.20;5.90;;;;;;;28.48;29.34;98486.66;4919555;29;20086;-77
2023/12/01 09:34:27;;;;;;;7.93;5.80;;;;;;;28.26;29.23;98465.03;4904197;29;20045;-77
2023/12/01 09:36:52;;;;;;;7.18;5.30;;;;;;;27.05;30.90;98471.75;4903975;29;20095;-75
2023/12/01 09:39:19;;;;;;;9.48;5.97;;;;;;;27.85;29.39;98475.75;4919991;29;20032;-77
2023/12/01 09:41:44;;;;;;;8.32;5.22;;;;;;;27.66;29.56;98466.19;4935508;29;20038;-78
2023/12/01 09:44:10;;;;;;;9.13;5.45;;;;;;;27.51;29.99;98462.13;4919717;29;20023;-76
2023/12/01 09:46:35;;;;;;;8.77;5.38;;;;;;;26.92;30.69;98455.91;4919248;29;20047;-77
2023/12/01 09:49:05;;;;;;;8.82;6.13;;;;;;;26.21;31.46;98440.41;4919629;29;20028;-78
2023/12/01 09:51:36;;;;;;;12.23;5.80;;;;;;;25.52;32.60;98451.22;4935367;29;20036;-77
2023/12/01 09:54:02;;;;;;;10.30;5.60;;;;;;;24.74;33.76;98453.28;4919837;29;20028;-77
2023/12/01 09:56:28;;;;;;;10.02;5.68;;;;;;;24.14;34.61;98452.75;4918876;29;20060;-78
2023/12/01 09:58:55;;;;;;;15.05;6.32;;;;;;;24.07;34.75;98465.28;4919487;29;20035;-75
2023/12/01 10:01:21;;;;;;;14.52;5.95;;;;;;;24.06;34.75;98447.69;4935054;29;20055;-77
2023/12/01 10:03:47;;;;;;;10.25;6.25;;;;;;;23.80;34.92;98452.84;4919254;29;20028;-77
2023/12/01 10:06:12;;;;;;;10.20;6.25;;;;;;;23.30;35.76;98457.88;4903521;29;20038;-76
2023/12/01 10:08:38;;;;;;;11.00;6.32;;;;;;;22.83;36.32;98451.69;4934779;29;20055;-77
2023/12/01 10:11:25;;;;;;;13.20;6.32;;;;;;;22.32;37.02;98453.00;4918834;29;20058;-77
2023/12/01 10:13:51;;;;;;;13.07;6.15;;;;;;;22.00;37.69;98447.34;4918995;29;20498;-80
2023/12/01 10:16:21;;;;;;;10.30;6.22;;;;;;;21.71;38.11;98448.41;4919003;29;20043;-80
2023/12/01 10:19:05;;;;;;;13.02;6.05;;;;;;;21.59;38.36;98445.50;4919491;29;20046;-78
2023/12/01 10:21:51;;;;;;;9.25;6.20;;;;;;;21.49;38.40;98443.16;4903573;29;20031;-79
2023/12/01 10:24:23;;;;;;;13.13;6.15;;;;;;;21.34;38.91;98445.91;4920565;29;20034;-77
2023/12/01 10:26:49;;;;;;;11.63;6.82;;;;;;;21.17;39.18;98439.25;4919596;29;20046;-80
2023/12/01 10:29:30;;;;;;;11.93;7.07;;;;;;;21.00;39.19;98450.16;4934739;29;20034;-79
2023/12/01 10:32:04;;;;;;;11.57;6.47;;;;;;;20.89;39.33;98455.94;4934449;29;20042;-78
2023/12/01 10:34:30;;;;;;;13.68;6.50;;;;;;;20.75;39.85;98463.78;4919526;29;20034;-79
2023/12/01 10:36:55;;;;;;;19.67;6.28;;;;;;;20.59;39.91;98451.56;4918780;29;20110;-78
2023/12/01 10:39:25;;;;;;;10.15;6.57;;;;;;;20.49;40.33;98440.44;4902936;29;20031;-80
2023/12/01 10:41:51;;;;;;;11.38;6.40;;;;;;;20.37;40.61;98434.81;4918804;29;20059;-81
2023/12/01 10:44:17;;;;;;;12.18;7.00;;;;;;;20.23;40.66;98427.75;4918784;29;20090;-82
2023/12/01 10:46:48;;;;;;;10.05;6.88;;;;;;;20.14;40.63;98415.59;4918596;29;20031;-80
2023/12/01 10:49:17;;;;;;;12.82;7.22;;;;;;;19.99;40.89;98424.41;4919065;29;20027;-77
2023/12/01 10:51:46;;;;;;;10.30;6.60;;;;;;;19.86;41.28;98418.91;4919660;29;20046;-75
2023/12/01 10:54:14;;;;;;;11.93;6.78;;;;;;;19.70;41.63;98407.50;4919116;29;20063;-77
2023/12/01 10:56:56;;;;;;;17.08;6.88;;;;;;;19.52;41.92;98415.00;4918468;29;20091;-78
2023/12/01 10:59:23;;;;;;;11.02;6.93;;;;;;;19.36;42.29;98421.28;4933748;29;20032;-78
2023/12/01 11:01:49;;;;;;;9.80;6.93;;;;;;;19.25;42.47;98421.72;4902442;29;20036;-77
2023/12/01 11:04:21;;;;;;;11.55;6.32;;;;;;;19.22;42.54;98430.84;4918648;29;20031;-80
2023/12/01 11:07:27;;;;;;;13.40;7.20;;;;;;;19.32;42.33;98420.00;4918621;29;20035;-77
2023/12/01 11:10:35;;;;;;;13.57;6.88;;;;;;;19.29;42.51;98417.72;4935125;29;20039;-78
2023/12/01 11:13:18;;;;;;;13.90;6.22;;;;;;;19.08;42.67;98421.88;4933072;29;20048;-78
2023/12/01 11:15:44;;;;;;;13.68;6.32;;;;;;;19.04;42.82;98435.63;4917258;29;20043;-79
2023/12/01 11:18:10;;;;;;;14.10;6.72;;;;;;;18.99;43.03;98422.94;4932906;29;20554;-78
2023/12/01 11:20:44;;;;;;;10.85;6.22;;;;;;;18.91;43.30;98412.44;4932908;29;20115;-77
2023/12/01 11:23:12;;;;;;;12.30;6.60;;;;;;;19.13;42.87;98397.53;4933023;29;20048;-77
2023/12/01 11:25:51;;;;;;;12.57;6.57;;;;;;;19.24;42.71;98383.03;4918410;29;20063;-77
2023/12/01 11:31:08;;;;;;;;;;;;;;;19.43;42.46;98408.94;4938360;29;20036;-77
2023/12/01 11:33:37;;;;;;;15.30;6.68;;;;;;;19.56;42.25;98402.22;4936605;29;19962;-77
2023/12/01 11:36:21;;;;;;;10.25;6.75;;;;;;;19.66;42.04;98393.00;4936560;29;20187;-77
2023/12/01 11:41:41;;;;;;;11.55;6.35;;;;;;;19.79;41.56;98368.53;4879814;29;20052;-76